Weather observations for the past three days for
Detroit Lakes Airport-Wething Field
| Date | Time (cdt) | Wind (kph) | Vis. (km) | Weather | Sky Cond. | Temperature (ºC) | Relative Humidity | Wind Chill (°C) | Heat Index (°C) | Pressure | Precipitation (cm) | ||||||
|---|---|---|---|---|---|---|---|---|---|---|---|---|---|---|---|---|---|
| Air | Dwpt | 6 hour | altimeter (cm) | sea level (mb) | 1 hr | 3 hr | 6 hr | ||||||||||
| Max. | Min. | ||||||||||||||||
| 06 | 08:41 | SE 20 | 12.87 | Overcast | OVC006 | 21 | 21 | 100% | 76.28 | 0.0 | |||||||
| 06 | 08:21 | SE 19 | 12.87 | Overcast | OVC006 | 20 | 20 | 100% | 76.28 | 0.0 | |||||||
| 06 | 08:01 | SE 15 | 12.87 | Overcast | OVC006 | 20 | 20 | 100% | 76.3 | 0.0 | |||||||
| 06 | 07:01 | SE 19 | 12.87 | Partly Cloudy | FEW022 SCT016 | 20 | 20 | 100% | 76.23 | 0.0 | |||||||
| 06 | 06:41 | SE 17 | 14.48 | Overcast | SCT022 OVC015 | 20 | 20 | 100% | 76.2 | 0.0 | |||||||
| 06 | 06:21 | SE 11 | 14.48 | Light Rain | FEW020 OVC150 | 20 | 20 | 100% | 76.28 | 0.0 | |||||||
| 06 | 06:01 | SE 11 | 14.48 | Mostly Cloudy | SCT019 BKN150 | 20 | 20 | 100% | 76.25 | 0.0 | |||||||
| 06 | 05:41 | SE 15 | 16.09 | Partly Cloudy | FEW005 SCT018 | 20 | 20 | 100% | 76.23 | 0.0 | |||||||
| 06 | 05:21 | SE 15 | 16.09 | Mostly Cloudy | SCT018 SCT013 BKN015 | 20 | 20 | 100% | 76.23 | 0.0 | |||||||
| 06 | 05:01 | SE 19 | 16.09 | Mostly Cloudy | SCT023 BKN150 | 20 | 20 | 100% | 76.25 | 0.0 | |||||||
| 06 | 04:41 | SE 13 | 16.09 | Overcast | OVC022 | 20 | 20 | 100% | 76.23 | 0.0 | |||||||
| 06 | 04:24 | SE 19 | 16.09 | Partly Cloudy | SCT021 SCT150 | 20 | 20 | 100% | 76.23 | 0.0 | |||||||
| 06 | 04:04 | SE 11 | 16.09 | A Few Clouds | FEW150 | 20 | 20 | 100% | 76.25 | 0.0 | |||||||
| 06 | 03:41 | SE 13 | 16.09 | Fair | CLR | 20 | 20 | 100% | 76.23 | 0.0 | |||||||
| 06 | 03:21 | E 17 | 16.09 | Fair | CLR | 20 | 20 | 100% | 76.23 | 0.0 | |||||||
| 06 | 02:41 | SE 17 | 16.09 | Partly Cloudy | SCT150 SCT170 | 21 | 21 | 100% | 76.17 | 0.0 | |||||||
| 06 | 02:21 | SE 20 | 16.09 | Mostly Cloudy | BKN150 | 21 | 21 | 100% | 76.2 | 0.0 | |||||||
| 06 | 02:01 | SE 17 | 16.09 | Mostly Cloudy | SCT140 BKN180 | 21 | 21 | 100% | 76.23 | 0.0 | |||||||
| 06 | 01:41 | SE 20 | 16.09 | Partly Cloudy | FEW150 SCT180 | 21 | 21 | 100% | 76.23 | 0.0 | |||||||
| 06 | 01:24 | SE 13 | 16.09 | Partly Cloudy | SCT140 | 21 | 21 | 100% | 76.23 | 0.0 | |||||||
| 06 | 01:01 | SE 17 | 16.09 | Mostly Cloudy | SCT140 BKN160 | 21 | 20 | 94% | 76.23 | 0.0 | |||||||
| 06 | 00:41 | SE 13 | 16.09 | Fair | CLR | 21 | 20 | 94% | 76.25 | 0.0 | |||||||
| 06 | 00:24 | SE 15 | 16.09 | Fair | CLR | 21 | 21 | 100% | 76.25 | 0.0 | |||||||
| 06 | 00:01 | SE 19 | 16.09 | Fair | CLR | 21 | 21 | 100% | 76.25 | 0.0 | |||||||
| 05 | 23:41 | SE 15 | 16.09 | Fair | CLR | 21 | 21 | 100% | 76.28 | 0.0 | |||||||
| 05 | 23:01 | E 11 | 16.09 | Fair | CLR | 21 | 21 | 100% | 76.28 | 0.0 | |||||||
| 05 | 22:41 | E 13 | 16.09 | Fair | CLR | 22 | 21 | 94% | 76.28 | 0.0 | |||||||
| 05 | 22:21 | E 11 | 16.09 | Fair | CLR | 22 | 21 | 94% | 76.28 | 0.0 | |||||||
| 05 | 22:01 | SE 15 | 16.09 | Fair | CLR | 22 | 21 | 94% | 76.23 | 0.0 | |||||||
| 05 | 21:41 | SE 13 | 16.09 | Fair | CLR | 22 | 21 | 94% | 76.23 | 0.0 | |||||||
| 05 | 21:21 | SE 19 | 16.09 | Fair | CLR | 23 | 21 | 89% | 76.2 | 0.0 | |||||||
| 05 | 21:01 | SE 17 | 16.09 | Fair | CLR | 23 | 22 | 94% | 76.17 | 0.0 | |||||||
| 05 | 20:41 | SE 13 | 16.09 | Fair | CLR | 23 | 22 | 94% | 76.17 | 0.0 | |||||||
| 05 | 20:21 | SE 11 | 16.09 | Fair | CLR | 23 | 22 | 94% | 76.2 | 0.0 | |||||||
| 05 | 19:21 | SE 13 | 16.09 | Fair | CLR | 24 | 21 | 83% | 24 | 0 | 0.0 | ||||||
| 05 | 19:01 | SE 17 | 16.09 | Fair | CLR | 25 | 21 | 79% | 26 | 76.1 | 0.0 | ||||||
| 05 | 18:41 | SE 17 | 16.09 | Fair | CLR | 26 | 21 | 74% | 27 | 76.07 | 0.0 | ||||||
| 05 | 18:21 | SE 20 | 16.09 | Fair | CLR | 26 | 21 | 74% | 27 | 76.07 | 0.0 | ||||||
| 05 | 18:01 | SE 22 | 16.09 | Fair | CLR | 27 | 20 | 66% | 29 | 76.05 | 0.0 | ||||||
| 05 | 17:41 | SE 19 | 16.09 | Fair | CLR | 27 | 20 | 66% | 29 | 76.05 | 0.0 | ||||||
| 05 | 17:21 | SE 22 | 14.48 | Fair | CLR | 27 | 20 | 66% | 29 | 76.05 | 0.0 | ||||||
| 05 | 17:01 | E 19 | 16.09 | Fair | CLR | 27 | 20 | 66% | 29 | 76.07 | 0.0 | ||||||
| 05 | 16:44 | SE 28 | 16.09 | Fair | CLR | 28 | 20 | 62% | 30 | 76.07 | 0.0 | ||||||
| 05 | 16:21 | E 24 G 33 | 16.09 | Fair | CLR | 28 | 20 | 62% | 30 | 76.1 | 0.0 | ||||||
| 05 | 16:05 | E 19 | 16.09 | Fair | CLR | 28 | 20 | 62% | 30 | 76.12 | 0.0 | ||||||
| 05 | 15:41 | E 22 | 16.09 | Fair | CLR | 27 | 20 | 66% | 29 | 0 | 0.0 | ||||||
| 05 | 15:01 | E 24 | 16.09 | Fair | CLR | 27 | 20 | 66% | 29 | 0 | 0.0 | ||||||
| 05 | 12:41 | SE 17 | 16.09 | Overcast | OVC150 | 23 | 20 | 83% | 76.28 | 0.0 | |||||||
| 05 | 12:24 | SE 19 | 16.09 | Overcast | OVC150 | 23 | 20 | 83% | 76.23 | 0.0 | |||||||
| 05 | 12:01 | SE 22 | 16.09 | Overcast | OVC150 | 22 | 20 | 88% | 76.25 | 0.0 | |||||||
| 05 | 11:41 | SE 19 | 16.09 | Mostly Cloudy | BKN150 | 23 | 20 | 83% | 76.25 | 0.0 | |||||||
| 05 | 11:01 | SE 24 | 14.48 | Mostly Cloudy | FEW091 BKN161 | 21 | 19 | 88% | 0 | 0.0 | |||||||
| 05 | 10:41 | SE 20 | 16.09 | A Few Clouds | FEW009 | 21 | 19 | 88% | 0 | 0.0 | |||||||
| 05 | 09:43 | SE 20 | 16.09 | Overcast | BKN008 BKN140 OVC180 | 20 | 18 | 88% | 76.3 | 0.0 | |||||||
| 05 | 09:01 | SE 19 | 16.09 | Overcast | OVC007 | 18 | 18 | 100% | 76.3 | 0.0 | |||||||
| 05 | 08:41 | SE 15 | 14.48 | Overcast | OVC007 | 18 | 18 | 100% | 76.28 | 0.0 | |||||||
| 05 | 08:01 | E 22 | 16.09 | Overcast | OVC005 | 18 | 18 | 100% | 76.23 | 0.0 | |||||||
| 05 | 07:44 | SE 19 | 16.09 | Overcast | OVC005 | 17 | 17 | 100% | 76.2 | 0.0 | |||||||
| 05 | 07:01 | E 15 | 16.09 | Overcast | OVC006 | 17 | 17 | 100% | 76.23 | 0.0 | |||||||
| 05 | 06:41 | E 19 | 16.09 | Overcast | OVC006 | 18 | 18 | 100% | 76.2 | 0.0 | |||||||
| 05 | 06:21 | E 11 | 16.09 | Overcast | OVC005 | 18 | 18 | 100% | 76.2 | 0.0 | |||||||
| 05 | 06:01 | SE 17 | 16.09 | Overcast | OVC005 | 18 | 18 | 100% | 76.2 | 0.0 | |||||||
| 05 | 05:41 | SE 20 | 16.09 | Overcast | OVC005 | 18 | 18 | 100% | 76.17 | 0.0 | |||||||
| 05 | 05:21 | SE 20 | 16.09 | Overcast | OVC005 | 18 | 18 | 100% | 76.15 | 0.0 | |||||||
| 05 | 05:01 | SE 22 | 16.09 | Overcast | OVC005 | 17 | 17 | 100% | 76.12 | 0.0 | |||||||
| 05 | 04:41 | E 19 | 16.09 | Overcast | OVC005 | 18 | 18 | 100% | 76.12 | 0.0 | |||||||
| 05 | 04:21 | E 19 | 16.09 | Overcast | OVC005 | 18 | 18 | 100% | 76.12 | 0.0 | |||||||
| 05 | 04:01 | SE 19 | 16.09 | Overcast | OVC006 | 18 | 18 | 100% | 76.15 | 0.0 | |||||||
| 05 | 03:41 | E 20 | 16.09 | Overcast | OVC006 | 18 | 18 | 100% | 76.15 | 0.0 | |||||||
| 05 | 03:21 | SE 17 | 14.48 | Overcast | OVC006 | 18 | 18 | 100% | 76.15 | 0.0 | |||||||
| 05 | 03:01 | SE 19 | 16.09 | Overcast | OVC006 | 18 | 18 | 100% | 76.15 | 0.0 | |||||||
| 05 | 02:41 | SE 24 | 16.09 | Overcast | OVC006 | 18 | 18 | 100% | 76.17 | 0.0 | |||||||
| 05 | 02:21 | SE 22 | 16.09 | Mostly Cloudy | BKN007 | 18 | 18 | 100% | 76.2 | 0.0 | |||||||
| 05 | 02:01 | E 17 | 16.09 | Mostly Cloudy | BKN008 | 18 | 18 | 100% | 76.17 | 0.0 | |||||||
| 05 | 01:41 | SE 13 | 16.09 | Overcast | OVC007 | 18 | 18 | 100% | 76.2 | 0.0 | |||||||
| 05 | 01:21 | SE 17 | 16.09 | Overcast | OVC005 | 18 | 18 | 100% | 76.2 | 0.0 | |||||||
| 05 | 01:01 | SE 24 G 33 | 16.09 | Overcast | OVC004 | 18 | 18 | 100% | 76.2 | 0.0 | |||||||
| 05 | 00:41 | SE 28 | 16.09 | Overcast | OVC004 | 18 | 18 | 100% | 76.2 | 0.0 | |||||||
| 05 | 00:21 | SE 19 | 16.09 | Overcast | OVC004 | 18 | 18 | 100% | 76.17 | 0.0 | |||||||
| 05 | 00:01 | E 17 | 16.09 | Mostly Cloudy | BKN004 | 18 | 18 | 100% | 76.17 | 0.0 | |||||||
| 04 | 23:41 | E 22 | 16.09 | Fair | CLR | 19 | 19 | 100% | 76.17 | 0.0 | |||||||
| 04 | 23:01 | E 17 | 16.09 | Fair | CLR | 20 | 20 | 100% | 76.17 | 0.0 | |||||||
| 04 | 22:41 | E 13 | 16.09 | Fair | CLR | 20 | 19 | 94% | 76.17 | 0.0 | |||||||
| 04 | 22:21 | E 11 | 16.09 | Fair | CLR | 20 | 19 | 94% | 76.17 | 0.0 | |||||||
| 04 | 22:01 | E 13 | 16.09 | Fair | CLR | 20 | 19 | 94% | 76.17 | 0.0 | |||||||
| 04 | 21:44 | E 13 | 16.09 | Fair | CLR | 21 | 19 | 88% | 76.17 | 0.0 | |||||||
| 04 | 21:21 | E 13 | 16.09 | Fair | CLR | 21 | 19 | 88% | 76.15 | 0.0 | |||||||
| 04 | 21:01 | E 15 | 16.09 | Fair | CLR | 22 | 20 | 88% | 76.15 | 0.0 | |||||||
| 04 | 20:41 | E 17 | 16.09 | Fair | CLR | 22 | 20 | 88% | 76.12 | 0.0 | |||||||
| 04 | 20:21 | E 11 | 16.09 | Fair | CLR | 23 | 20 | 83% | 76.1 | 0.0 | |||||||
| 04 | 19:41 | E 19 | 14.48 | A Few Clouds | FEW019 | 24 | 20 | 78% | 24 | 76.07 | 0.0 | ||||||
| 04 | 19:01 | E 15 | 16.09 | A Few Clouds | FEW250 | 25 | 19 | 69% | 26 | 76.05 | 0.0 | ||||||
| 04 | 18:41 | SE 20 | 16.09 | Mostly Cloudy | BKN260 | 27 | 19 | 62% | 28 | 76.07 | 0.0 | ||||||
| 04 | 18:21 | E 17 | 14.48 | Partly Cloudy | SCT260 | 28 | 19 | 58% | 29 | 76.07 | 0.0 | ||||||
| 04 | 18:01 | E 11 | 16.09 | A Few Clouds | FEW290 | 28 | 19 | 58% | 29 | 76.05 | 0.0 | ||||||
| 04 | 17:21 | E 9 | 16.09 | A Few Clouds | FEW280 | 29 | 19 | 55% | 30 | 76.02 | 0.0 | ||||||
| 04 | 17:01 | E 13 | 16.09 | Fair | CLR | 29 | 18 | 51% | 30 | 76.02 | 0.0 | ||||||
| 04 | 16:41 | NE 13 | 16.09 | Fair | CLR | 29 | 17 | 48% | 29 | 76.02 | 0.0 | ||||||
| 04 | 16:24 | E 11 | 16.09 | Fair | CLR | 29 | 17 | 48% | 29 | 76.05 | 0.0 | ||||||
| 04 | 16:01 | Vrbl 9 | 16.09 | Fair | CLR | 29 | 17 | 48% | 29 | 76.05 | 0.0 | ||||||
| 04 | 15:41 | NE 7 | 16.09 | Fair | CLR | 29 | 18 | 51% | 30 | 76.05 | 0.0 | ||||||
| 04 | 15:21 | E 17 | 16.09 | Fair | CLR | 29 | 18 | 51% | 30 | 76.05 | 0.0 | ||||||
| 04 | 15:01 | NE 9 | 16.09 | Fair | CLR | 29 | 18 | 51% | 30 | 76.05 | 0.0 | ||||||
| 04 | 14:41 | NE 17 | 16.09 | Fair | CLR | 28 | 18 | 55% | 29 | 76.05 | 0.0 | ||||||
| 04 | 14:21 | NE 11 | 16.09 | Fair | CLR | 28 | 18 | 55% | 29 | 76.05 | 0.0 | ||||||
| 04 | 14:01 | E 11 | 16.09 | Fair | CLR | 28 | 19 | 58% | 29 | 76.05 | 0.0 | ||||||
| 04 | 13:41 | N 9 | 16.09 | Fair | CLR | 28 | 19 | 58% | 29 | 76.05 | 0.0 | ||||||
| 04 | 13:21 | NE 13 | 16.09 | Fair | CLR | 27 | 19 | 62% | 28 | 76.05 | 0.0 | ||||||
| 04 | 13:01 | E 13 | 16.09 | Fair | CLR | 27 | 18 | 58% | 28 | 76.05 | 0.0 | ||||||
| 04 | 12:04 | E 13 | 16.09 | Fair | CLR | 26 | 20 | 70% | 27 | 76.05 | 0.0 | ||||||
| 04 | 11:41 | NE 15 | 16.09 | Fair | CLR | 25 | 20 | 74% | 26 | 76.05 | 0.0 | ||||||
| 04 | 11:24 | N 7 | 16.09 | Fair | CLR | 25 | 21 | 79% | 26 | 76.02 | 0.0 | ||||||
| 04 | 11:01 | N 9 | 16.09 | A Few Clouds | FEW013 | 24 | 21 | 83% | 24 | 76.05 | 0.0 | ||||||
| 04 | 10:41 | N 7 | 16.09 | A Few Clouds | FEW008 | 23 | 21 | 89% | 76.05 | 0.0 | |||||||
| 04 | 10:01 | Calm | 16.09 | Overcast | OVC006 | 21 | 21 | 100% | 76.02 | 0.0 | |||||||
| 04 | 09:41 | Calm | 12.87 | Overcast | OVC005 | 20 | 20 | 100% | 76.02 | 0.0 | |||||||
| 04 | 09:01 | NE 7 | 11.27 | Overcast | OVC004 | 20 | 20 | 100% | 75.97 | 0.0 | |||||||
| 04 | 08:41 | NE 7 | 6.44 | Fog/Mist | OVC001 | 19 | 19 | 100% | 75.97 | 0.0 | |||||||
| 04 | 08:21 | N 6 | 1.21 | Fog/Mist | OVC001 | 19 | 19 | 100% | 75.97 | 0.0 | |||||||
| 04 | 08:01 | Calm | 3.22 | Fog/Mist | OVC001 | 1 | 1 | 100% | 75.97 | 0.0 | |||||||
| 04 | 07:24 | Calm | 11.27 | Overcast | OVC003 | 18 | 18 | 100% | 75.95 | 0.0 | |||||||
| 04 | 07:04 | E 7 | 12.87 | Overcast | OVC004 | 19 | 19 | 100% | 75.92 | 0.0 | |||||||
| 04 | 06:41 | E 9 | 14.48 | Overcast | OVC005 | 18 | 18 | 100% | 75.9 | 0.0 | |||||||
| 04 | 06:21 | SE 13 | 16.09 | Overcast | OVC004 | 18 | 18 | 100% | 75.87 | 0.0 | |||||||
| 04 | 05:41 | E 11 | 16.09 | Overcast | OVC007 | 19 | 19 | 100% | 75.87 | 0.0 | |||||||
| 04 | 05:21 | SE 13 | 16.09 | Overcast | OVC007 | 19 | 19 | 100% | 75.84 | 0.0 | |||||||
| 04 | 05:01 | S 7 | 16.09 | Overcast | OVC008 | 18 | 18 | 100% | 75.87 | 0.0 | |||||||
| 04 | 04:41 | E 6 | 16.09 | Overcast | OVC009 | 18 | 18 | 100% | 75.82 | 0.0 | |||||||
| 04 | 04:21 | NE 7 | 16.09 | Overcast | OVC009 | 18 | 18 | 100% | 75.82 | 0.0 | |||||||
| 04 | 03:41 | E 7 | 16.09 | Partly Cloudy | SCT009 | 18 | 18 | 100% | 75.79 | 0.0 | |||||||
| 04 | 03:21 | Calm | 16.09 | Fair | CLR | 18 | 18 | 100% | 75.77 | 0.0 | |||||||
| 04 | 02:41 | E 6 | 16.09 | Fair | CLR | 19 | 18 | 94% | 75.79 | 0.0 | |||||||
| 04 | 02:24 | E 7 | 16.09 | Fair | CLR | 19 | 18 | 94% | 75.77 | 0.0 | |||||||
| 04 | 02:01 | E 7 | 16.09 | Fair | CLR | 19 | 19 | 100% | 75.77 | 0.0 | |||||||
| 04 | 01:41 | E 13 | 16.09 | Fair | CLR | 19 | 19 | 100% | 75.74 | 0.0 | |||||||
| 04 | 01:21 | E 13 | 16.09 | Fair | CLR | 19 | 19 | 100% | 75.77 | 0.0 | |||||||
| 04 | 01:01 | E 17 | 16.09 | Fair | CLR | 19 | 19 | 100% | 75.74 | 0.0 | |||||||
| 04 | 00:41 | E 19 | 16.09 | Fair | CLR | 19 | 19 | 100% | 75.72 | 0.0 | |||||||
| 04 | 00:01 | E 13 | 16.09 | Fair | CLR | 20 | 19 | 94% | 75.72 | 0.0 | |||||||
| 03 | 23:41 | E 17 | 16.09 | Fair | CLR | 20 | 19 | 94% | 75.67 | 0.0 | |||||||
| 03 | 23:21 | E 19 | 16.09 | Fair | CLR | 20 | 19 | 94% | 0 | 0.0 | |||||||
| 03 | 23:01 | NE 19 | 16.09 | Fair | CLR | 20 | 19 | 94% | 75.72 | 0.0 | |||||||
| 03 | 22:04 | E 15 | 16.09 | Fair | CLR | 21 | 19 | 88% | 75.64 | 0.0 | |||||||
| 03 | 21:41 | SE 15 | 16.09 | Fair | CLR | 21 | 19 | 88% | 75.62 | 0.0 | |||||||
| 03 | 21:21 | E 13 | 16.09 | Fair | CLR | 22 | 19 | 83% | 0 | 0.0 | |||||||
| 03 | 21:04 | E 20 | 16.09 | Fair | CLR | 22 | 20 | 88% | 75.59 | 0.0 | |||||||
| 03 | 20:41 | E 15 | 16.09 | Fair | CLR | 22 | 19 | 83% | 75.59 | 0.0 | |||||||
| 03 | 20:01 | E 17 | 14.48 | Partly Cloudy | SCT140 | 22 | 19 | 83% | 75.57 | 0.0 | |||||||
| 03 | 19:48 | E 17 | 14.48 | Mostly Cloudy | BKN140 BKN160 | 22 | 19 | 83% | 75.57 | 0.0 | |||||||
| 03 | 14:01 | SE 22 | 16.09 | Partly Cloudy | FEW150 SCT170 | 28 | 22 | 70% | 31 | 75.54 | 0.0 | ||||||
| 03 | 13:44 | SE 24 | 16.09 | Overcast | BKN150 OVC180 | 29 | 22 | 66% | 32 | 75.57 | 0.0 | ||||||
| 03 | 13:21 | SE 28 | 16.09 | Mostly Cloudy | BKN150 | 28 | 21 | 66% | 30 | 75.57 | 0.0 | ||||||
| 03 | 12:41 | SE 28 | 16.09 | Fair | CLR | 27 | 21 | 70% | 29 | 75.59 | 0.0 | ||||||
| 03 | 12:24 | SE 22 | 16.09 | Partly Cloudy | SCT040 | 27 | 22 | 74% | 29 | 75.59 | 0.0 | ||||||
| 03 | 12:01 | SE 19 | 16.09 | Overcast | FEW028 OVC037 | 26 | 21 | 74% | 27 | 0 | 0.0 | ||||||
| 03 | 11:41 | SE 24 | 14.48 | Mostly Cloudy | BKN034 | 26 | 21 | 74% | 27 | 75.62 | 0.0 | ||||||
| 03 | 11:21 | SE 19 | 16.09 | Fair | CLR | 26 | 20 | 70% | 27 | 75.62 | 0.0 | ||||||
| 03 | 11:01 | E 26 | 16.09 | Fair | CLR | 25 | 20 | 74% | 26 | 75.62 | 0.0 | ||||||
| 03 | 10:41 | E 22 G 31 | 16.09 | Fair | CLR | 25 | 19 | 69% | 26 | 75.64 | 0.0 | ||||||
| 03 | 10:21 | E 22 | 16.09 | Fair | CLR | 23 | 19 | 78% | 75.64 | 0.0 | |||||||
| 03 | 09:44 | E 22 | 16.09 | Fair | CLR | 23 | 17 | 69% | 75.67 | 0.0 | |||||||
| 03 | 09:21 | E 19 | 16.09 | A Few Clouds | FEW015 | 22 | 17 | 73% | 75.69 | 0.0 | |||||||
| 03 | 09:01 | E 24 | 16.09 | Mostly Cloudy | BKN160 | 22 | 16 | 69% | 75.72 | 0.0 | |||||||
| Date | Time (cdt) | Wind (kph) | Vis. (km) | Weather | Sky Cond. | Air | Dwpt | Max. | Min. | Relative Humidity | Wind Chill (°C) | Heat Index (°C) | altimeter (cm) | sea level (mb) | 1 hr | 3 hr | 6 hr |
| 6 hour | |||||||||||||||||
| Temperature (ºC) | Pressure | Precipitation (cm) | |||||||||||||||